Time;durP1;ratioP1;P1;durP2;ratioP2;P2;SDS_P1;SDS_P2;PMS_P1;PMS_P2;Temp;Humidity;BMP_temperature;BMP_pressure;BME280_temperature;BME280_humidity;BME280_pressure;Samples;Min_cycle;Max_cycle;Signal;HPM_P1;HPM_P2
2023/12/21 00:02:15;;;;;;;;;1.00;1.00;;;;;;;;5060117;28;45798;-76
2023/12/21 00:04:43;;;;;;;;;3.00;2.00;;;;;;;;5060284;28;45394;-76
2023/12/21 00:07:11;;;;;;;;;3.00;2.00;;;;;;;;5060049;28;47124;-75
2023/12/21 00:09:36;;;;;;;;;4.00;2.33;;;;;;;;5061635;28;45300;-75
2023/12/21 00:12:11;;;;;;;;;4.33;2.00;;;;;;;;5061840;28;45276;-76
2023/12/21 00:14:41;;;;;;;;;4.00;3.33;;;;;;;;5060318;28;45250;-76
2023/12/21 00:17:07;;;;;;;;;2.00;1.00;;;;;;;;5061147;28;45681;-76
2023/12/21 00:19:35;;;;;;;;;1.00;1.00;;;;;;;;5061200;28;45510;-76
2023/12/21 00:22:06;;;;;;;;;2.33;2.00;;;;;;;;5060098;28;45208;-76
2023/12/21 00:24:34;;;;;;;;;2.00;2.00;;;;;;;;5060438;28;45335;-75
2023/12/21 00:26:59;;;;;;;;;2.33;2.33;;;;;;;;5059322;28;45244;-76
2023/12/21 00:29:30;;;;;;;;;3.33;2.00;;;;;;;;5059187;28;47621;-76
2023/12/21 00:32:13;;;;;;;;;4.00;2.33;;;;;;;;5061437;28;45322;-76
2023/12/21 00:34:42;;;;;;;;;1.00;1.00;;;;;;;;5043151;28;45530;-76
2023/12/21 00:37:08;;;;;;;;;4.33;2.00;;;;;;;;5060976;28;45449;-76
2023/12/21 00:39:36;;;;;;;;;1.00;1.00;;;;;;;;5059622;28;46938;-76
2023/12/21 00:42:05;;;;;;;;;3.67;2.00;;;;;;;;5061307;28;45279;-76
2023/12/21 00:44:30;;;;;;;;;3.00;2.00;;;;;;;;5061154;28;45338;-76
2023/12/21 00:47:03;;;;;;;;;4.00;2.00;;;;;;;;5059741;28;45924;-76
2023/12/21 00:49:28;;;;;;;;;4.67;3.00;;;;;;;;5060777;28;46911;-75
2023/12/21 00:51:55;;;;;;;;;2.00;1.67;;;;;;;;5061143;28;45402;-76
2023/12/21 00:54:21;;;;;;;;;3.00;3.00;;;;;;;;5060960;28;45405;-76
2023/12/21 00:56:46;;;;;;;;;4.33;1.67;;;;;;;;5059023;28;45567;-76
2023/12/21 00:59:11;;;;;;;;;2.00;2.00;;;;;;;;5042602;28;47230;-76
2023/12/21 01:01:36;;;;;;;;;3.00;2.00;;;;;;;;5059574;28;45386;-76
2023/12/21 01:04:01;;;;;;;;;2.00;2.00;;;;;;;;5061032;28;45446;-76
2023/12/21 01:06:27;;;;;;;;;2.00;1.00;;;;;;;;5060732;28;45502;-76
2023/12/21 01:09:02;;;;;;;;;1.00;1.00;;;;;;;;5060591;28;45350;-76
2023/12/21 01:11:27;;;;;;;;;3.67;1.33;;;;;;;;5040329;28;45399;-76
2023/12/21 01:13:52;;;;;;;;;3.00;1.67;;;;;;;;5060658;28;45567;-75
2023/12/21 01:16:18;;;;;;;;;1.00;1.00;;;;;;;;5060587;28;45431;-76
2023/12/21 01:18:46;;;;;;;;;3.00;3.00;;;;;;;;5059021;28;47046;-76
2023/12/21 01:21:14;;;;;;;;;3.67;3.67;;;;;;;;5059252;28;45284;-76
2023/12/21 01:23:39;;;;;;;;;2.00;2.00;;;;;;;;5060391;28;45393;-76
2023/12/21 01:26:07;;;;;;;;;3.00;3.00;;;;;;;;5060557;28;45556;-76
2023/12/21 01:28:33;;;;;;;;;2.33;2.33;;;;;;;;5060401;28;46563;-76
2023/12/21 01:30:58;;;;;;;;;6.00;4.33;;;;;;;;5058958;28;45843;-75
2023/12/21 01:33:23;;;;;;;;;1.00;1.00;;;;;;;;5060052;28;45352;-74
2023/12/21 01:35:51;;;;;;;;;5.33;3.67;;;;;;;;5058667;28;45945;-77
2023/12/21 01:38:24;;;;;;;;;5.33;3.00;;;;;;;;5040538;28;48309;-76
2023/12/21 01:40:49;;;;;;;;;5.00;4.00;;;;;;;;5059248;28;45339;-76
2023/12/21 01:43:14;;;;;;;;;4.00;3.33;;;;;;;;5060298;28;45208;-76
2023/12/21 01:45:40;;;;;;;;;6.67;4.00;;;;;;;;5060005;28;45149;-76
2023/12/21 01:48:09;;;;;;;;;4.00;3.67;;;;;;;;5060188;28;46284;-75
2023/12/21 01:50:37;;;;;;;;;6.33;5.00;;;;;;;;5060029;28;45326;-76
2023/12/21 01:53:07;;;;;;;;;1.33;1.33;;;;;;;;5060199;28;45394;-76
2023/12/21 01:55:34;;;;;;;;;3.33;3.33;;;;;;;;5060215;28;45438;-76
2023/12/21 01:58:00;;;;;;;;;3.33;3.33;;;;;;;;5054725;28;47473;-76
2023/12/21 02:00:26;;;;;;;;;3.00;3.00;;;;;;;;5039713;28;45251;-75
2023/12/21 02:02:51;;;;;;;;;1.33;1.33;;;;;;;;5039942;28;45238;-75
2023/12/21 02:05:16;;;;;;;;;3.67;3.67;;;;;;;;5058520;28;45908;-76
2023/12/21 02:07:42;;;;;;;;;1.67;1.67;;;;;;;;5059774;28;46248;-76
2023/12/21 02:10:07;;;;;;;;;3.00;1.33;;;;;;;;5059877;28;45409;-76
2023/12/21 02:12:32;;;;;;;;;1.33;1.33;;;;;;;;5058479;28;45386;-76
2023/12/21 02:14:57;;;;;;;;;3.00;1.00;;;;;;;;5058236;28;46128;-76
2023/12/21 02:17:24;;;;;;;;;4.00;3.00;;;;;;;;5059747;28;45547;-76
2023/12/21 02:19:50;;;;;;;;;4.67;3.33;;;;;;;;5041386;28;45461;-76
2023/12/21 02:22:15;;;;;;;;;3.00;2.00;;;;;;;;5057836;28;45304;-76
2023/12/21 02:24:41;;;;;;;;;2.00;2.00;;;;;;;;5057485;28;45414;-75
2023/12/21 02:27:06;;;;;;;;;0.00;0.00;;;;;;;;5041529;28;47070;-76
2023/12/21 02:29:31;;;;;;;;;2.33;2.33;;;;;;;;5059541;28;45340;-76
2023/12/21 02:31:56;;;;;;;;;3.00;2.00;;;;;;;;5059743;28;45336;-76
2023/12/21 02:34:22;;;;;;;;;2.00;2.00;;;;;;;;5059588;28;45260;-76
2023/12/21 02:36:47;;;;;;;;;2.00;1.00;;;;;;;;5059430;28;45607;-76
2023/12/21 02:39:12;;;;;;;;;1.67;1.67;;;;;;;;5057770;28;45371;-76
2023/12/21 02:41:37;;;;;;;;;1.00;1.00;;;;;;;;5059678;28;45541;-75
2023/12/21 02:44:02;;;;;;;;;2.00;2.00;;;;;;;;5059443;28;45341;-75
2023/12/21 02:46:28;;;;;;;;;1.00;1.00;;;;;;;;5059321;28;47466;-76
2023/12/21 02:48:53;;;;;;;;;2.00;1.00;;;;;;;;5057974;28;45273;-75
2023/12/21 02:51:18;;;;;;;;;1.33;1.00;;;;;;;;5060826;28;45573;-76
2023/12/21 02:53:43;;;;;;;;;2.00;2.00;;;;;;;;5062754;28;45371;-76
2023/12/21 02:56:09;;;;;;;;;2.67;2.00;;;;;;;;5061446;28;47050;-75
2023/12/21 02:58:34;;;;;;;;;3.67;2.00;;;;;;;;5062576;28;45486;-76
2023/12/21 03:01:00;;;;;;;;;2.67;2.67;;;;;;;;5062308;28;45296;-76
2023/12/21 03:03:25;;;;;;;;;2.00;1.00;;;;;;;;5061830;28;45443;-76
2023/12/21 03:05:50;;;;;;;;;3.00;3.00;;;;;;;;5062503;28;45307;-76
2023/12/21 03:08:16;;;;;;;;;3.00;2.00;;;;;;;;5072783;28;45871;-76
2023/12/21 03:10:41;;;;;;;;;2.67;2.00;;;;;;;;5078120;28;45338;-76
2023/12/21 03:13:06;;;;;;;;;2.00;2.00;;;;;;;;5062177;28;45300;-76
2023/12/21 03:15:31;;;;;;;;;2.00;2.00;;;;;;;;5062025;28;46290;-76
2023/12/21 03:17:57;;;;;;;;;2.00;2.00;;;;;;;;5061024;28;45821;-75
2023/12/21 03:20:22;;;;;;;;;2.67;1.00;;;;;;;;5077843;28;45384;-76
2023/12/21 03:22:47;;;;;;;;;0.67;0.00;;;;;;;;5067255;28;45764;-76
2023/12/21 03:25:12;;;;;;;;;1.00;1.00;;;;;;;;5062288;28;46195;-75
2023/12/21 03:27:38;;;;;;;;;1.00;1.00;;;;;;;;5062467;28;45317;-76
2023/12/21 03:30:03;;;;;;;;;1.00;1.00;;;;;;;;5061089;28;45390;-75
2023/12/21 03:32:29;;;;;;;;;2.00;1.67;;;;;;;;5060835;28;46235;-76
2023/12/21 03:34:55;;;;;;;;;0.67;0.67;;;;;;;;5062000;28;45188;-76
2023/12/21 03:37:20;;;;;;;;;1.00;1.00;;;;;;;;5061953;28;45287;-75
2023/12/21 03:39:46;;;;;;;;;0.33;0.33;;;;;;;;5043982;28;45445;-75
2023/12/21 03:42:11;;;;;;;;;1.67;0.00;;;;;;;;5062057;28;45476;-76
2023/12/21 03:44:36;;;;;;;;;0.67;0.67;;;;;;;;5043903;28;47270;-75
2023/12/21 03:47:01;;;;;;;;;1.00;1.00;;;;;;;;5062168;28;45354;-75
2023/12/21 03:49:28;;;;;;;;;0.00;0.00;;;;;;;;5062167;28;45557;-76
2023/12/21 03:51:54;;;;;;;;;1.00;1.00;;;;;;;;5061929;28;45337;-76
2023/12/21 03:54:19;;;;;;;;;2.00;2.00;;;;;;;;5061800;28;45332;-76
2023/12/21 03:56:44;;;;;;;;;2.00;2.00;;;;;;;;5052243;28;45510;-75
2023/12/21 03:59:10;;;;;;;;;0.00;0.00;;;;;;;;5041634;28;45414;-75
2023/12/21 04:01:36;;;;;;;;;3.00;2.00;;;;;;;;5023359;28;46041;-76
2023/12/21 04:04:01;;;;;;;;;0.00;0.00;;;;;;;;5040138;28;48208;-76
2023/12/21 04:06:26;;;;;;;;;1.00;1.00;;;;;;;;5040184;28;45319;-75
2023/12/21 04:08:54;;;;;;;;;1.00;1.00;;;;;;;;5023367;28;45249;-76
2023/12/21 04:11:19;;;;;;;;;0.00;0.00;;;;;;;;5041599;28;45301;-76
2023/12/21 04:13:46;;;;;;;;;1.00;0.33;;;;;;;;5039979;28;48464;-76
2023/12/21 04:16:11;;;;;;;;;0.00;0.00;;;;;;;;5040153;28;45212;-75
2023/12/21 04:18:36;;;;;;;;;0.33;0.00;;;;;;;;5040083;28;45283;-76
2023/12/21 04:21:01;;;;;;;;;0.33;0.33;;;;;;;;5041497;28;45201;-76
2023/12/21 04:23:26;;;;;;;;;3.33;1.00;;;;;;;;5039746;28;47349;-76
2023/12/21 04:25:52;;;;;;;;;0.33;0.33;;;;;;;;5041251;28;45261;-75
2023/12/21 04:28:17;;;;;;;;;1.00;1.00;;;;;;;;5041370;28;45228;-76
2023/12/21 04:30:42;;;;;;;;;1.67;1.00;;;;;;;;5041357;28;45534;-76
2023/12/21 04:33:10;;;;;;;;;1.00;1.00;;;;;;;;5041108;28;45359;-76
2023/12/21 04:35:35;;;;;;;;;0.33;0.33;;;;;;;;5039840;28;45491;-75
2023/12/21 04:38:00;;;;;;;;;1.00;1.00;;;;;;;;5041259;28;45395;-75
2023/12/21 04:40:25;;;;;;;;;2.00;1.00;;;;;;;;5023119;28;45815;-76
2023/12/21 04:42:55;;;;;;;;;3.00;2.00;;;;;;;;5041099;28;45427;-76
2023/12/21 04:45:20;;;;;;;;;1.00;1.00;;;;;;;;5040975;28;45220;-76
2023/12/21 04:47:45;;;;;;;;;1.00;1.00;;;;;;;;5039829;28;45613;-76
2023/12/21 04:50:10;;;;;;;;;2.00;0.67;;;;;;;;5022934;28;45987;-76
2023/12/21 04:52:36;;;;;;;;;2.67;2.67;;;;;;;;5040516;28;45207;-76
2023/12/21 04:55:01;;;;;;;;;2.00;2.00;;;;;;;;5022910;28;45308;-75
2023/12/21 04:57:26;;;;;;;;;3.00;3.00;;;;;;;;5057894;28;45337;-75
2023/12/21 04:59:51;;;;;;;;;1.00;1.00;;;;;;;;5101274;27;45361;-75
2023/12/21 05:02:16;;;;;;;;;1.67;1.00;;;;;;;;5083144;27;47578;-76
2023/12/21 05:04:42;;;;;;;;;1.00;1.00;;;;;;;;5101667;27;45147;-76
2023/12/21 05:07:10;;;;;;;;;2.00;2.00;;;;;;;;5083072;27;45201;-76
2023/12/21 05:09:35;;;;;;;;;1.00;1.00;;;;;;;;5101400;27;45456;-76
2023/12/21 05:12:00;;;;;;;;;2.00;2.00;;;;;;;;5101427;27;46140;-75
2023/12/21 05:14:25;;;;;;;;;1.00;1.00;;;;;;;;5100663;27;45453;-76
2023/12/21 05:16:51;;;;;;;;;1.00;1.00;;;;;;;;5083154;27;45437;-76
2023/12/21 05:19:16;;;;;;;;;1.67;1.67;;;;;;;;5101142;27;45333;-75
2023/12/21 05:21:41;;;;;;;;;0.00;0.00;;;;;;;;5101183;27;45432;-75
2023/12/21 05:24:06;;;;;;;;;2.00;2.00;;;;;;;;5083048;27;45327;-76
2023/12/21 05:26:32;;;;;;;;;2.67;2.67;;;;;;;;5101399;27;45437;-76
2023/12/21 05:28:57;;;;;;;;;2.00;2.00;;;;;;;;5082650;27;46191;-76
2023/12/21 05:31:23;;;;;;;;;1.00;1.00;;;;;;;;5101148;27;45445;-76
2023/12/21 05:33:48;;;;;;;;;2.67;2.67;;;;;;;;5082577;27;45335;-76
2023/12/21 05:36:19;;;;;;;;;1.00;1.00;;;;;;;;5101323;27;45294;-76
2023/12/21 05:38:44;;;;;;;;;0.33;0.33;;;;;;;;5082162;27;46466;-76
2023/12/21 05:41:09;;;;;;;;;4.67;2.00;;;;;;;;5100922;27;45420;-75
2023/12/21 05:43:34;;;;;;;;;1.33;1.33;;;;;;;;5101141;27;45260;-76
2023/12/21 05:45:59;;;;;;;;;2.00;2.00;;;;;;;;5086281;27;45538;-76
2023/12/21 05:48:25;;;;;;;;;3.33;3.00;;;;;;;;5078887;28;45906;-75
2023/12/21 05:50:50;;;;;;;;;12.33;12.33;;;;;;;;5079333;28;45484;-76
2023/12/21 05:53:15;;;;;;;;;5.33;4.00;;;;;;;;5079683;28;45345;-76
2023/12/21 05:55:40;;;;;;;;;8.00;8.00;;;;;;;;5078952;28;45318;-76
2023/12/21 05:58:05;;;;;;;;;8.67;8.67;;;;;;;;5092836;27;46053;-75
2023/12/21 06:00:31;;;;;;;;;2.00;1.67;;;;;;;;5100690;27;45331;-76
2023/12/21 06:02:56;;;;;;;;;10.33;10.33;;;;;;;;5100558;27;45276;-76
2023/12/21 06:05:21;;;;;;;;;2.00;2.00;;;;;;;;5100186;27;45346;-75
2023/12/21 06:07:47;;;;;;;;;5.33;3.33;;;;;;;;5099529;27;45379;-76
2023/12/21 06:10:12;;;;;;;;;0.67;0.67;;;;;;;;5094258;27;48613;-76
2023/12/21 06:12:37;;;;;;;;;5.33;5.33;;;;;;;;5080017;28;45406;-76
2023/12/21 06:15:04;;;;;;;;;2.00;2.00;;;;;;;;5061132;28;45545;-76
2023/12/21 06:17:29;;;;;;;;;1.67;1.67;;;;;;;;5079300;28;45579;-76
2023/12/21 06:19:55;;;;;;;;;0.00;0.00;;;;;;;;5079253;28;45389;-75
2023/12/21 06:22:20;;;;;;;;;1.00;1.00;;;;;;;;5078315;28;45396;-75
2023/12/21 06:24:45;;;;;;;;;0.33;0.33;;;;;;;;5061259;28;45312;-76
2023/12/21 06:27:10;;;;;;;;;1.33;1.33;;;;;;;;5079950;28;45426;-76
2023/12/21 06:29:35;;;;;;;;;1.00;1.00;;;;;;;;5079982;28;45296;-77
2023/12/21 06:32:02;;;;;;;;;2.33;1.00;;;;;;;;5079901;28;45333;-76
2023/12/21 06:34:27;;;;;;;;;0.33;0.33;;;;;;;;5078588;28;45264;-76
2023/12/21 06:36:53;;;;;;;;;0.00;0.00;;;;;;;;5079716;28;45329;-76
2023/12/21 06:39:18;;;;;;;;;1.00;1.00;;;;;;;;5079687;28;45262;-77
2023/12/21 06:41:44;;;;;;;;;0.00;0.00;;;;;;;;5079858;28;45174;-76
2023/12/21 06:44:10;;;;;;;;;1.00;1.00;;;;;;;;5078490;28;45389;-76
2023/12/21 06:46:36;;;;;;;;;0.00;0.00;;;;;;;;5079627;28;45411;-76
2023/12/21 06:49:01;;;;;;;;;1.00;1.00;;;;;;;;5079592;28;46124;-76
2023/12/21 06:51:26;;;;;;;;;3.00;1.33;;;;;;;;5079710;28;45306;-76
2023/12/21 06:53:51;;;;;;;;;0.00;0.00;;;;;;;;5079678;28;45264;-77
2023/12/21 06:56:17;;;;;;;;;0.00;0.00;;;;;;;;5079590;28;45244;-77
2023/12/21 06:58:43;;;;;;;;;0.00;0.00;;;;;;;;5078919;27;46361;-76
2023/12/21 07:01:08;;;;;;;;;0.00;0.00;;;;;;;;5078590;28;45404;-76
2023/12/21 07:03:36;;;;;;;;;0.00;0.00;;;;;;;;5061261;28;45330;-76
2023/12/21 07:06:02;;;;;;;;;0.00;0.00;;;;;;;;5077953;28;47826;-76
2023/12/21 07:08:27;;;;;;;;;0.00;0.00;;;;;;;;5079301;28;46649;-77
2023/12/21 07:10:53;;;;;;;;;0.00;0.00;;;;;;;;5079352;28;45346;-77
2023/12/21 07:13:18;;;;;;;;;0.00;0.00;;;;;;;;5079584;28;45422;-76
2023/12/21 07:15:44;;;;;;;;;2.00;2.00;;;;;;;;5079036;28;45314;-76
2023/12/21 07:18:09;;;;;;;;;2.00;2.00;;;;;;;;5079294;28;45338;-78
2023/12/21 07:20:34;;;;;;;;;3.33;3.33;;;;;;;;5077655;28;45529;-76
2023/12/21 07:23:00;;;;;;;;;2.00;1.67;;;;;;;;5068358;27;45621;-77
2023/12/21 07:25:25;;;;;;;;;1.00;1.00;;;;;;;;5070517;28;45398;-76
2023/12/21 07:27:50;;;;;;;;;1.00;1.00;;;;;;;;5077109;28;45519;-76
2023/12/21 07:30:16;;;;;;;;;10.00;8.67;;;;;;;;5077420;28;45318;-77
2023/12/21 07:32:41;;;;;;;;;5.00;5.00;;;;;;;;5052961;28;45366;-77
2023/12/21 07:35:07;;;;;;;;;0.00;0.00;;;;;;;;5066944;28;45431;-76
2023/12/21 07:37:33;;;;;;;;;1.33;1.33;;;;;;;;5081982;27;45471;-76
2023/12/21 07:39:58;;;;;;;;;0.67;0.67;;;;;;;;5081706;28;45200;-76
2023/12/21 07:42:24;;;;;;;;;0.00;0.00;;;;;;;;5082544;28;45414;-76
2023/12/21 07:44:49;;;;;;;;;0.00;0.00;;;;;;;;5082184;28;45390;-76
2023/12/21 07:47:14;;;;;;;;;0.00;0.00;;;;;;;;5081450;28;45330;-81
2023/12/21 07:49:39;;;;;;;;;0.00;0.00;;;;;;;;5081390;28;45191;-79
2023/12/21 07:52:05;;;;;;;;;0.00;0.00;;;;;;;;5081740;28;45221;-77
2023/12/21 07:54:30;;;;;;;;;1.33;1.00;;;;;;;;5063496;28;46198;-77
2023/12/21 07:56:55;;;;;;;;;0.00;0.00;;;;;;;;5086420;27;45236;-76
2023/12/21 07:59:24;;;;;;;;;0.67;0.67;;;;;;;;5102000;27;45335;-77
2023/12/21 08:01:49;;;;;;;;;1.00;1.00;;;;;;;;5102459;27;45292;-76
2023/12/21 08:04:16;;;;;;;;;0.67;0.67;;;;;;;;5101888;27;45485;-79
2023/12/21 08:06:41;;;;;;;;;0.00;0.00;;;;;;;;5102351;27;45385;-77
2023/12/21 08:09:06;;;;;;;;;0.00;0.00;;;;;;;;5102162;27;45424;-78
2023/12/21 08:11:31;;;;;;;;;1.67;1.00;;;;;;;;5102341;27;45310;-76
2023/12/21 08:13:56;;;;;;;;;1.00;1.00;;;;;;;;5083940;27;46188;-77
2023/12/21 08:16:22;;;;;;;;;2.00;2.00;;;;;;;;5102102;27;45311;-77
2023/12/21 08:18:47;;;;;;;;;0.00;0.00;;;;;;;;5084028;27;45355;-77
2023/12/21 08:21:12;;;;;;;;;2.00;2.00;;;;;;;;5102272;27;45333;-77
2023/12/21 08:23:38;;;;;;;;;2.00;2.00;;;;;;;;5100698;27;45874;-78
2023/12/21 08:26:04;;;;;;;;;1.00;1.00;;;;;;;;5102055;27;46010;-76
2023/12/21 08:28:30;;;;;;;;;7.00;5.33;;;;;;;;5100867;27;45267;-77
2023/12/21 08:30:55;;;;;;;;;2.67;2.00;;;;;;;;5082421;28;45160;-77
2023/12/21 08:33:20;;;;;;;;;4.00;4.00;;;;;;;;5080207;28;45516;-76
2023/12/21 08:35:46;;;;;;;;;1.00;1.00;;;;;;;;5080377;28;45441;-75
2023/12/21 08:38:12;;;;;;;;;4.33;3.00;;;;;;;;5080014;28;45891;-76
2023/12/21 08:40:37;;;;;;;;;2.00;2.00;;;;;;;;5081506;28;45271;-77
2023/12/21 08:43:02;;;;;;;;;0.00;0.00;;;;;;;;5080654;28;45715;-77
2023/12/21 08:45:27;;;;;;;;;0.00;0.00;;;;;;;;5062539;28;47470;-77
2023/12/21 08:47:54;;;;;;;;;1.00;1.00;;;;;;;;5079508;28;45274;-78
2023/12/21 08:50:19;;;;;;;;;1.00;1.00;;;;;;;;5079848;28;45353;-78
2023/12/21 08:52:44;;;;;;;;;1.00;1.00;;;;;;;;5063069;28;46160;-79
2023/12/21 08:55:10;;;;;;;;;0.33;0.33;;;;;;;;5079839;28;47601;-79
2023/12/21 08:57:38;;;;;;;;;0.33;0.33;;;;;;;;5090621;27;45481;-77
2023/12/21 09:00:05;;;;;;;;;1.00;0.67;;;;;;;;5101908;27;45222;-78
2023/12/21 09:02:31;;;;;;;;;1.00;1.00;;;;;;;;5084156;27;45540;-77
2023/12/21 09:04:56;;;;;;;;;1.00;1.00;;;;;;;;5083520;27;47614;-78
2023/12/21 09:07:22;;;;;;;;;0.67;0.67;;;;;;;;5100622;27;45416;-79
2023/12/21 09:09:47;;;;;;;;;1.00;1.00;;;;;;;;5101722;27;45275;-77
2023/12/21 09:12:12;;;;;;;;;1.00;1.00;;;;;;;;5101308;27;45604;-76
2023/12/21 09:14:37;;;;;;;;;0.00;0.00;;;;;;;;5082824;27;47427;-77
2023/12/21 09:17:03;;;;;;;;;0.00;0.00;;;;;;;;5101231;27;45362;-78
2023/12/21 09:19:29;;;;;;;;;1.00;1.00;;;;;;;;5100448;27;45374;-78
2023/12/21 09:21:55;;;;;;;;;1.00;1.00;;;;;;;;5101265;27;45537;-79
2023/12/21 09:24:20;;;;;;;;;0.00;0.00;;;;;;;;5082846;27;48250;-80
2023/12/21 09:26:45;;;;;;;;;1.00;1.00;;;;;;;;5099921;27;45402;-77
2023/12/21 09:29:10;;;;;;;;;0.00;0.00;;;;;;;;5083038;27;45334;-80
2023/12/21 09:31:35;;;;;;;;;2.00;2.00;;;;;;;;5100860;27;45330;-81
2023/12/21 09:34:00;;;;;;;;;2.00;2.00;;;;;;;;5100960;27;45609;-81
2023/12/21 09:36:26;;;;;;;;;1.67;1.67;;;;;;;;5082568;27;45817;-78
2023/12/21 09:38:52;;;;;;;;;1.33;1.33;;;;;;;;5100955;27;45554;-80
2023/12/21 09:41:17;;;;;;;;;2.00;2.00;;;;;;;;5100468;27;45444;-76
2023/12/21 09:43:46;;;;;;;;;11.33;11.00;;;;;;;;5061014;28;47466;-76
2023/12/21 09:46:13;;;;;;;;;4.67;4.67;;;;;;;;5057606;28;46496;-77
2023/12/21 09:48:40;;;;;;;;;1.00;1.00;;;;;;;;5079790;28;45280;-77
2023/12/21 09:51:07;;;;;;;;;0.00;0.00;;;;;;;;5075154;27;46055;-77
2023/12/21 09:53:34;;;;;;;;;1.00;1.00;;;;;;;;5077804;27;48024;-79
2023/12/21 09:56:00;;;;;;;;;0.00;0.00;;;;;;;;5058000;28;45527;-77
2023/12/21 09:58:25;;;;;;;;;0.00;0.00;;;;;;;;5072770;27;45461;-77
2023/12/21 10:00:50;;;;;;;;;2.00;2.00;;;;;;;;5070883;28;45427;-79
2023/12/21 10:03:16;;;;;;;;;1.00;1.00;;;;;;;;5055277;28;48086;-78
2023/12/21 10:05:41;;;;;;;;;0.00;0.00;;;;;;;;5078007;28;45442;-78
2023/12/21 10:08:07;;;;;;;;;2.00;2.00;;;;;;;;5078789;28;45384;-77
2023/12/21 10:10:32;;;;;;;;;0.00;0.00;;;;;;;;5061292;28;46118;-77
2023/12/21 10:12:58;;;;;;;;;1.00;1.00;;;;;;;;5079076;27;46080;-79
2023/12/21 10:15:23;;;;;;;;;1.00;1.00;;;;;;;;5078771;28;45379;-78
2023/12/21 10:17:49;;;;;;;;;1.50;1.50;;;;;;;;5078068;27;45240;-79
2023/12/21 10:20:14;;;;;;;;;0.00;0.00;;;;;;;;5060226;28;46961;-78
2023/12/21 10:22:40;;;;;;;;;1.00;1.00;;;;;;;;5078207;28;45523;-78
2023/12/21 10:25:07;;;;;;;;;1.00;1.00;;;;;;;;5059849;28;45938;-78
2023/12/21 10:27:33;;;;;;;;;3.00;2.00;;;;;;;;5077598;28;45356;-77
2023/12/21 10:29:58;;;;;;;;;1.00;1.00;;;;;;;;5059419;28;46129;-76
2023/12/21 10:32:24;;;;;;;;;3.00;3.00;;;;;;;;5058208;28;47355;-75
2023/12/21 10:34:49;;;;;;;;;1.00;1.00;;;;;;;;5073876;28;45331;-77
2023/12/21 10:37:14;;;;;;;;;3.00;3.00;;;;;;;;5077547;28;45453;-77
2023/12/21 10:39:40;;;;;;;;;0.75;0.75;;;;;;;;5060418;28;45836;-77
2023/12/21 10:42:05;;;;;;;;;3.00;2.00;;;;;;;;5078953;28;46286;-77
2023/12/21 10:44:30;;;;;;;;;1.50;1.50;;;;;;;;5060281;28;46203;-77
2023/12/21 10:46:56;;;;;;;;;2.00;2.00;;;;;;;;5078632;28;45386;-78
2023/12/21 10:49:21;;;;;;;;;1.67;1.67;;;;;;;;5060492;28;47389;-77
2023/12/21 10:51:47;;;;;;;;;1.75;1.75;;;;;;;;5078425;28;46390;-77
2023/12/21 10:54:16;;;;;;;;;1.67;1.67;;;;;;;;5077553;28;45380;-77
2023/12/21 10:56:42;;;;;;;;;0.00;0.00;;;;;;;;5053416;27;45545;-78
2023/12/21 10:59:08;;;;;;;;;2.00;2.00;;;;;;;;5070851;28;45577;-78
2023/12/21 11:01:34;;;;;;;;;2.67;2.67;;;;;;;;5079064;28;45625;-77
2023/12/21 11:03:59;;;;;;;;;0.00;0.00;;;;;;;;5078049;28;45295;-79
2023/12/21 11:06:26;;;;;;;;;2.00;2.00;;;;;;;;5060713;28;45319;-79
2023/12/21 11:08:52;;;;;;;;;3.00;2.00;;;;;;;;5079689;28;45418;-79
2023/12/21 11:11:22;;;;;;;;;2.67;2.67;;;;;;;;5079276;28;46307;-77
2023/12/21 11:13:50;;;;;;;;;3.67;3.67;;;;;;;;5082668;28;45419;-77
2023/12/21 11:16:16;;;;;;;;;4.00;4.00;;;;;;;;5081408;28;45386;-78
2023/12/21 11:18:43;;;;;;;;;1.00;0.67;;;;;;;;5082636;28;45343;-79
2023/12/21 11:21:09;;;;;;;;;3.00;3.00;;;;;;;;5082379;28;45273;-79
2023/12/21 11:23:40;;;;;;;;;2.33;2.33;;;;;;;;5064119;28;45356;-78
2023/12/21 11:26:06;;;;;;;;;3.33;2.00;;;;;;;;5082294;28;45295;-77
2023/12/21 11:28:33;;;;;;;;;2.00;2.00;;;;;;;;5081965;28;45383;-79
2023/12/21 11:30:59;;;;;;;;;3.00;3.00;;;;;;;;5075664;27;46225;-79
2023/12/21 11:33:30;;;;;;;;;3.00;3.00;;;;;;;;5079254;28;46507;-79
2023/12/21 11:35:57;;;;;;;;;3.00;1.33;;;;;;;;5081396;28;45283;-79
2023/12/21 11:38:24;;;;;;;;;3.00;3.00;;;;;;;;5062065;28;46750;-79
2023/12/21 11:40:49;;;;;;;;;2.00;2.00;;;;;;;;5079872;28;45982;-79
2023/12/21 11:43:21;;;;;;;;;2.67;2.67;;;;;;;;5081578;28;45379;-78
2023/12/21 11:45:47;;;;;;;;;4.00;4.00;;;;;;;;5081415;28;45472;-80
2023/12/21 11:48:16;;;;;;;;;2.00;2.00;;;;;;;;5081371;28;45505;-80
2023/12/21 11:50:43;;;;;;;;;2.00;2.00;;;;;;;;5081682;28;46098;-80
2023/12/21 11:53:09;;;;;;;;;4.00;2.67;;;;;;;;5074777;28;45540;-78
2023/12/21 11:55:38;;;;;;;;;3.67;2.67;;;;;;;;5080140;28;45494;-77
2023/12/21 11:58:16;;;;;;;;;3.33;3.33;;;;;;;;5060058;28;45494;-77
2023/12/21 12:01:00;;;;;;;;;4.00;4.00;;;;;;;;5059598;28;46205;-78
2023/12/21 12:03:27;;;;;;;;;3.67;3.67;;;;;;;;5059780;28;45355;-78
2023/12/21 12:05:58;;;;;;;;;2.33;2.33;;;;;;;;5076413;28;45458;-77
2023/12/21 12:08:24;;;;;;;;;3.67;3.33;;;;;;;;5059405;28;45466;-78
2023/12/21 12:10:50;;;;;;;;;0.00;0.00;;;;;;;;5060137;28;45356;-78
2023/12/21 12:13:18;;;;;;;;;2.00;2.00;;;;;;;;5059809;28;45573;-79
2023/12/21 12:15:47;;;;;;;;;2.67;2.67;;;;;;;;5059674;28;45762;-77
2023/12/21 12:18:12;;;;;;;;;3.00;2.33;;;;;;;;5057991;28;45443;-78
2023/12/21 12:20:40;;;;;;;;;1.33;1.33;;;;;;;;5058038;28;45341;-78
2023/12/21 12:23:06;;;;;;;;;2.00;1.00;;;;;;;;5058237;28;45467;-80
2023/12/21 12:25:31;;;;;;;;;2.00;2.00;;;;;;;;5056700;28;45562;-78
2023/12/21 12:27:56;;;;;;;;;2.00;2.00;;;;;;;;5042802;28;45537;-79
2023/12/21 12:30:22;;;;;;;;;2.00;2.00;;;;;;;;5057328;28;45496;-78
2023/12/21 12:32:49;;;;;;;;;5.67;3.67;;;;;;;;5059828;28;45370;-78
2023/12/21 12:35:14;;;;;;;;;0.75;0.25;;;;;;;;5060688;28;45313;-78
2023/12/21 12:37:39;;;;;;;;;2.33;2.33;;;;;;;;5058727;28;46136;-77
2023/12/21 12:40:05;;;;;;;;;4.00;2.33;;;;;;;;5060511;28;45345;-77
2023/12/21 12:42:31;;;;;;;;;4.67;2.67;;;;;;;;5060636;28;45277;-76
2023/12/21 12:44:58;;;;;;;;;2.33;1.33;;;;;;;;5059803;28;45351;-76
2023/12/21 12:47:23;;;;;;;;;2.67;2.67;;;;;;;;5060195;28;45211;-77
2023/12/21 12:49:52;;;;;;;;;1.67;1.00;;;;;;;;5058851;28;47220;-77
2023/12/21 12:52:24;;;;;;;;;0.67;0.67;;;;;;;;5059842;28;45529;-79
2023/12/21 12:54:52;;;;;;;;;5.00;3.00;;;;;;;;5040855;28;45416;-79
2023/12/21 13:00:45;;;;;;;;;3.33;3.00;;;;;;;;5067162;28;46295;-78
2023/12/21 13:03:11;;;;;;;;;6.67;3.67;;;;;;;;5021785;28;45653;-80
2023/12/21 13:05:37;;;;;;;;;6.00;5.67;;;;;;;;5058936;28;45441;-78
2023/12/21 13:08:02;;;;;;;;;6.00;4.00;;;;;;;;5080314;28;45505;-77
2023/12/21 13:10:27;;;;;;;;;6.33;4.00;;;;;;;;5078947;28;45993;-76
2023/12/21 13:12:52;;;;;;;;;3.67;3.67;;;;;;;;5080583;28;45342;-77
2023/12/21 13:15:18;;;;;;;;;3.67;3.67;;;;;;;;5060646;28;45493;-79
2023/12/21 13:17:43;;;;;;;;;2.00;2.00;;;;;;;;5078604;27;45324;-77
2023/12/21 13:20:11;;;;;;;;;5.00;2.00;;;;;;;;5079400;27;46208;-77
2023/12/21 13:22:37;;;;;;;;;1.00;1.00;;;;;;;;5078367;28;45796;-77
2023/12/21 13:25:02;;;;;;;;;3.00;3.00;;;;;;;;5080168;28;45329;-76
2023/12/21 13:27:28;;;;;;;;;3.00;2.00;;;;;;;;5079860;27;45346;-77
2023/12/21 13:29:53;;;;;;;;;4.00;3.00;;;;;;;;5079026;28;45371;-77
2023/12/21 13:32:18;;;;;;;;;3.00;3.00;;;;;;;;5078467;28;45391;-77
2023/12/21 13:34:44;;;;;;;;;4.00;3.33;;;;;;;;5078500;28;45403;-80
2023/12/21 13:37:10;;;;;;;;;2.00;2.00;;;;;;;;5078767;28;45460;-77
2023/12/21 13:39:38;;;;;;;;;3.33;1.67;;;;;;;;5077288;28;45969;-77
2023/12/21 13:42:03;;;;;;;;;3.00;2.00;;;;;;;;5079028;28;45591;-77
2023/12/21 13:44:32;;;;;;;;;1.33;1.33;;;;;;;;5059820;28;45630;-78
2023/12/21 13:46:58;;;;;;;;;3.00;2.00;;;;;;;;5076642;28;46145;-78
2023/12/21 13:49:24;;;;;;;;;4.33;3.33;;;;;;;;5077833;28;46221;-77
2023/12/21 13:51:49;;;;;;;;;3.67;3.00;;;;;;;;5078727;28;45800;-77
2023/12/21 13:54:18;;;;;;;;;4.00;4.00;;;;;;;;5061528;28;45444;-77
2023/12/21 13:56:43;;;;;;;;;4.00;3.00;;;;;;;;5079868;27;45444;-76
2023/12/21 13:59:09;;;;;;;;;5.33;5.00;;;;;;;;5078508;28;45348;-76
2023/12/21 14:01:34;;;;;;;;;3.33;2.33;;;;;;;;5078849;28;45186;-78
2023/12/21 14:03:59;;;;;;;;;5.33;5.00;;;;;;;;5095406;27;45409;-77
2023/12/21 14:06:25;;;;;;;;;3.67;3.67;;;;;;;;5079257;28;45373;-78
2023/12/21 14:08:50;;;;;;;;;3.67;3.67;;;;;;;;5079698;27;45533;-79
2023/12/21 14:11:15;;;;;;;;;2.67;2.33;;;;;;;;5079741;28;45311;-79
2023/12/21 14:13:40;;;;;;;;;6.33;4.00;;;;;;;;5078356;28;45433;-79
2023/12/21 14:16:05;;;;;;;;;5.00;3.67;;;;;;;;5094368;27;47240;-80
2023/12/21 14:18:32;;;;;;;;;6.33;4.00;;;;;;;;5078293;28;45528;-79
2023/12/21 14:20:58;;;;;;;;;8.67;5.00;;;;;;;;5079066;28;45367;-77
2023/12/21 14:23:23;;;;;;;;;8.33;5.00;;;;;;;;5078517;28;45328;-80
2023/12/21 14:25:48;;;;;;;;;5.00;4.00;;;;;;;;5060665;28;45474;-80
2023/12/21 14:28:15;;;;;;;;;5.33;4.33;;;;;;;;5060156;28;46440;-81
2023/12/21 14:30:40;;;;;;;;;6.00;5.00;;;;;;;;5060449;28;46218;-81
2023/12/21 14:33:26;;;;;;;;;9.00;6.67;;;;;;;;5078526;28;45343;-79
2023/12/21 14:35:51;;;;;;;;;4.00;4.00;;;;;;;;5074351;28;45335;-80
2023/12/21 14:38:18;;;;;;;;;4.00;4.00;;;;;;;;5077039;28;45338;-79
2023/12/21 14:43:50;;;;;;;;;6.33;5.00;;;;;;;;5076092;28;45467;-79